tititudorancea.com
Station Historical Data
Daily Summary for February 13, 2018 Units:  English    Metric   Both
« Previous Day
Next Day »
Daily Weekly Monthly Yearly Custom
  High: Low: Average:
Temperature: TemperatureF °F 50.0 °F 67 °F
Dew Point: DewpointF °F 42.6 °F 48.5 °F
Humidity: Humidity % 26 % 57 %
Wind Speed: WindSpeedMPH mph 0.0 mph 3.9 mph
Wind Gust: WindSpeedGustMPH mph - -
Wind:- - West
Pressure: PressureIn in 29.66 in -
Precipitation: 0.00 in    
Historical Graphs
 
 
Ararat weather Find more about Weather in Ararat, AU


 



 


Tabular Data for February 13, 2018
Time Temperature Dew Point Pressure Wind Wind Speed Wind Gust Humidity Rainfall Rate (Hourly)
TemperatureF °F DewpointF °F PressureIn in Calm     Humidity % HourlyPrecipIn in
00:02 57.5 °F 51.0 °F 29.89 in South 3.3 mph 9.2 mph 79 % 0.00 in
00:07 57.4 °F 50.9 °F 29.89 in South 6.8 mph 9.2 mph 79 % 0.00 in
00:12 57.4 °F 50.9 °F 29.89 in South 4.6 mph 5.0 mph 79 % 0.00 in
00:17 57.5 °F 51.0 °F 29.89 in South 6.6 mph 8.1 mph 79 % 0.00 in
00:22 57.5 °F 51.0 °F 29.89 in South 3.1 mph 9.2 mph 79 % 0.00 in
00:27 57.5 °F 51.0 °F 29.89 in South 6.2 mph 10.4 mph 79 % 0.00 in
00:32 57.4 °F 50.9 °F 29.88 in North 5.0 mph 9.0 mph 79 % 0.00 in
00:37 57.4 °F 50.9 °F 29.89 in North 3.9 mph 7.0 mph 79 % 0.00 in
00:42 57.2 °F 50.7 °F 29.88 in South 4.1 mph 6.0 mph 79 % 0.00 in
00:47 57.1 °F 50.6 °F 29.88 in South 4.1 mph 6.0 mph 79 % 0.00 in
00:52 57.0 °F 50.9 °F 29.88 in South 5.1 mph 6.0 mph 80 % 0.00 in
00:58 56.8 °F 50.7 °F 29.88 in South 4.9 mph 6.9 mph 80 % 0.00 in
01:03 56.7 °F 50.6 °F 29.88 in South 3.3 mph 6.9 mph 80 % 0.00 in
01:07 56.5 °F 50.4 °F 29.88 in South 2.3 mph 3.5 mph 80 % 0.00 in
01:12 56.3 °F 50.2 °F 29.88 in South 2.4 mph 4.6 mph 80 % 0.00 in
01:17 56.1 °F 50.3 °F 29.88 in South 4.9 mph 4.9 mph 81 % 0.00 in
01:23 56.1 °F 50.3 °F 29.88 in South 2.7 mph 8.1 mph 81 % 0.00 in
01:27 56.1 °F 50.3 °F 29.88 in South 2.4 mph 3.5 mph 81 % 0.00 in
01:33 56.0 °F 50.3 °F 29.88 in South 2.6 mph 5.8 mph 81 % 0.00 in
01:38 55.9 °F 50.2 °F 29.87 in South 2.2 mph 5.8 mph 81 % 0.00 in
01:43 55.7 °F 50.0 °F 29.87 in South 2.1 mph 3.5 mph 81 % 0.00 in
01:48 55.5 °F 50.1 °F 29.87 in North 2.5 mph 4.6 mph 82 % 0.00 in
01:52 55.2 °F 49.8 °F 29.87 in South 2.1 mph 3.5 mph 82 % 0.00 in
01:57 54.9 °F 49.8 °F 29.87 in South 2.6 mph 4.0 mph 83 % 0.00 in
02:03 54.8 °F 49.7 °F 29.87 in South 1.7 mph 4.6 mph 83 % 0.00 in
02:07 54.8 °F 50.1 °F 29.87 in North 3.1 mph 4.6 mph 84 % 0.00 in
02:13 54.8 °F 50.1 °F 29.87 in South 4.2 mph 6.0 mph 84 % 0.00 in
02:18 55.0 °F 50.3 °F 29.87 in South 2.6 mph 3.5 mph 84 % 0.00 in
02:23 55.0 °F 50.3 °F 29.87 in North 1.6 mph 4.6 mph 84 % 0.00 in
02:28 55.1 °F 50.4 °F 29.87 in South 3.0 mph 4.6 mph 84 % 0.00 in
02:33 55.1 °F 50.4 °F 29.87 in South 1.6 mph 4.6 mph 84 % 0.00 in
02:38 55.0 °F 50.3 °F 29.87 in South 1.4 mph 2.3 mph 84 % 0.00 in
02:43 54.9 °F 50.2 °F 29.87 in South 1.7 mph 3.5 mph 84 % 0.00 in
02:48 54.8 °F 50.1 °F 29.87 in South 1.3 mph 3.5 mph 84 % 0.00 in
02:53 54.7 °F 50.3 °F 29.86 in South 1.6 mph 3.5 mph 85 % 0.00 in
02:58 54.5 °F 50.1 °F 29.86 in South 1.3 mph 3.5 mph 85 % 0.00 in
03:03 54.4 °F 50.0 °F 29.86 in Calm   1.2 mph 85 % 0.00 in
03:08 54.3 °F 49.9 °F 29.86 in Calm     85 % 0.00 in
03:13 54.1 °F 49.7 °F 29.86 in South 1.8 mph 3.5 mph 85 % 0.00 in
03:18 54.0 °F 49.9 °F 29.86 in South 0.6 mph 2.3 mph 86 % 0.00 in
03:23 53.9 °F 49.8 °F 29.85 in South 1.6 mph 2.3 mph 86 % 0.00 in
03:28 53.8 °F 49.7 °F 29.85 in South 2.5 mph 3.5 mph 86 % 0.00 in
03:33 53.7 °F 49.9 °F 29.85 in South 2.9 mph 3.5 mph 87 % 0.00 in
03:38 53.5 °F 49.4 °F 29.86 in South 2.9 mph 4.6 mph 86 % 0.00 in
03:43 53.5 °F 49.7 °F 29.86 in North 2.8 mph 3.5 mph 87 % 0.00 in
03:48 53.5 °F 50.0 °F 29.85 in South 3.3 mph 3.5 mph 88 % 0.00 in
03:53 53.4 °F 49.9 °F 29.85 in North 1.9 mph 3.5 mph 88 % 0.00 in
03:58 53.2 °F 49.4 °F 29.85 in North 2.1 mph 3.5 mph 87 % 0.00 in
04:03 53.0 °F 49.5 °F 29.85 in South 2.2 mph 3.5 mph 88 % 0.00 in
04:08 52.9 °F 49.4 °F 29.85 in North 2.1 mph 3.5 mph 88 % 0.00 in
04:13 52.8 °F 49.3 °F 29.84 in North 2.1 mph 3.5 mph 88 % 0.00 in
04:18 52.8 °F 49.6 °F 29.84 in North 1.8 mph 3.5 mph 89 % 0.00 in
04:23 52.8 °F 49.6 °F 29.84 in South 3.2 mph 4.0 mph 89 % 0.00 in
04:28 52.9 °F 49.7 °F 29.84 in South 3.1 mph 3.5 mph 89 % 0.00 in
04:33 52.9 °F 49.7 °F 29.84 in North 2.0 mph 2.3 mph 89 % 0.00 in
04:38 53.0 °F 49.8 °F 29.84 in North 2.0 mph 3.5 mph 89 % 0.00 in
04:43 53.0 °F 49.8 °F 29.84 in South 2.3 mph 3.5 mph 89 % 0.00 in
04:48 53.0 °F 49.8 °F 29.84 in South 1.3 mph 2.3 mph 89 % 0.00 in
04:53 53.0 °F 49.8 °F 29.84 in North 2.4 mph 3.0 mph 89 % 0.00 in
04:58 52.9 °F 49.7 °F 29.84 in North 2.1 mph 3.5 mph 89 % 0.00 in
05:03 52.7 °F 49.5 °F 29.84 in North 1.7 mph 2.3 mph 89 % 0.00 in
05:08 52.6 °F 49.4 °F 29.83 in South 2.2 mph 3.0 mph 89 % 0.00 in
05:13 52.5 °F 49.7 °F 29.84 in North 1.1 mph 2.3 mph 90 % 0.00 in
05:18 52.5 °F 49.7 °F 29.84 in Calm   1.2 mph 90 % 0.00 in
05:23 52.3 °F 49.5 °F 29.83 in Calm   1.2 mph 90 % 0.00 in
05:28 52.3 °F 49.5 °F 29.83 in Calm     90 % 0.00 in
05:33 52.2 °F 49.4 °F 29.84 in Calm     90 % 0.00 in
05:38 52.0 °F 49.2 °F 29.84 in Calm     90 % 0.00 in
05:43 51.9 °F 49.1 °F 29.84 in Calm     90 % 0.00 in
05:48 51.7 °F 48.9 °F 29.84 in Calm     90 % 0.00 in
05:53 51.4 °F 48.6 °F 29.84 in Calm     90 % 0.00 in
05:58 51.4 °F 48.9 °F 29.84 in Calm     91 % 0.00 in
06:03 51.4 °F 48.9 °F 29.84 in Calm     91 % 0.00 in
06:08 51.4 °F 48.9 °F 29.84 in Calm     91 % 0.00 in
06:13 51.4 °F 48.9 °F 29.84 in Calm     91 % 0.00 in
06:18 51.4 °F 49.2 °F 29.84 in Calm     92 % 0.00 in
06:23 51.4 °F 49.2 °F 29.84 in Calm     92 % 0.00 in
06:28 51.4 °F 49.2 °F 29.84 in Calm     92 % 0.00 in
06:33 51.3 °F 49.1 °F 29.85 in Calm     92 % 0.00 in
06:38 51.2 °F 49.0 °F 29.85 in Calm     92 % 0.00 in
06:43 51.1 °F 48.9 °F 29.84 in Calm     92 % 0.00 in
06:48 50.8 °F 48.6 °F 29.84 in Calm     92 % 0.00 in
06:53 50.6 °F 48.4 °F 29.84 in Calm     92 % 0.00 in
06:58 50.5 °F 48.3 °F 29.85 in Calm     92 % 0.00 in
07:36 50.0 °F 48.1 °F 29.86 in Calm     93 % 0.00 in
07:41 50.1 °F 48.2 °F 29.86 in Calm     93 % 0.00 in
07:46 50.4 °F 48.5 °F 29.86 in Calm     93 % 0.00 in
07:52 50.8 °F 49.1 °F 29.87 in Calm     94 % 0.00 in
07:57 51.2 °F 49.5 °F 29.86 in Calm     94 % 0.00 in
08:02 52.1 °F 50.7 °F 29.87 in Calm     95 % 0.00 in
08:07 53.4 °F 52.0 °F 29.87 in Calm     95 % 0.00 in
08:12 54.7 °F 53.3 °F 29.87 in Calm     95 % 0.00 in
08:17 55.4 °F 53.7 °F 29.87 in South 0.1 mph 1.0 mph 94 % 0.00 in
08:22 55.7 °F 53.4 °F 29.87 in North 1.6 mph 3.5 mph 92 % 0.00 in
08:27 56.0 °F 53.7 °F 29.86 in South 0.6 mph 2.3 mph 92 % 0.00 in
08:32 56.5 °F 53.6 °F 29.87 in South 2.2 mph 3.5 mph 90 % 0.00 in
08:37 56.8 °F 54.5 °F 29.87 in South 1.8 mph 3.5 mph 92 % 0.00 in
08:42 57.2 °F 53.7 °F 29.86 in South 1.3 mph 3.0 mph 88 % 0.00 in
08:47 57.5 °F 54.0 °F 29.87 in South 1.9 mph 2.3 mph 88 % 0.00 in
08:52 58.2 °F 54.3 °F 29.87 in Calm     87 % 0.00 in
08:57 58.9 °F 54.1 °F 29.87 in South 0.5 mph 2.3 mph 84 % 0.00 in
09:02 59.0 °F 53.8 °F 29.87 in South 1.1 mph 2.3 mph 83 % 0.00 in
09:07 59.4 °F 54.2 °F 29.87 in Calm     83 % 0.00 in
09:12 59.8 °F 54.0 °F 29.87 in Calm     81 % 0.00 in
09:17 60.4 °F 54.2 °F 29.87 in South 0.9 mph 2.3 mph 80 % 0.00 in
09:22 61.4 °F 54.5 °F 29.87 in South 1.6 mph 3.5 mph 78 % 0.00 in
09:27 62.3 °F 53.9 °F 29.87 in South 0.5 mph 1.2 mph 74 % 0.00 in
09:32 63.0 °F 54.2 °F 29.87 in South 0.9 mph 3.5 mph 73 % 0.00 in
09:37 63.8 °F 54.6 °F 29.87 in Calm   2.0 mph 72 % 0.00 in
09:42 65.4 °F 54.2 °F 29.87 in South 3.4 mph 3.5 mph 67 % 0.00 in
09:47 66.0 °F 53.9 °F 29.86 in South 2.5 mph 4.0 mph 65 % 0.00 in
09:52 66.4 °F 53.0 °F 29.86 in South 2.2 mph 3.0 mph 62 % 0.00 in
09:57 66.8 °F 52.9 °F 29.86 in South 2.4 mph 5.8 mph 61 % 0.00 in
10:02 66.9 °F 52.6 °F 29.86 in South 2.3 mph 3.5 mph 60 % 0.00 in
10:07 67.2 °F 52.8 °F 29.86 in South 2.5 mph 3.5 mph 60 % 0.00 in
10:12 67.5 °F 53.1 °F 29.86 in Calm   1.2 mph 60 % 0.00 in
10:17 68.2 °F 52.9 °F 29.86 in South 1.4 mph 3.5 mph 58 % 0.00 in
10:22 68.6 °F 53.2 °F 29.86 in South 1.3 mph 3.5 mph 58 % 0.00 in
10:27 68.8 °F 52.0 °F 29.87 in South 2.6 mph 4.0 mph 55 % 0.00 in
10:32 68.7 °F 52.4 °F 29.86 in South 1.3 mph 2.3 mph 56 % 0.00 in
10:37 69.0 °F 52.6 °F 29.86 in South 2.9 mph 5.0 mph 56 % 0.00 in
10:42 69.8 °F 51.9 °F 29.86 in NNE 5.9 mph 8.0 mph 53 % 0.00 in
10:47 70.7 °F 51.7 °F 29.86 in NNE 4.9 mph 6.9 mph 51 % 0.00 in
10:52 71.2 °F 51.1 °F 29.86 in NNW 6.8 mph 11.5 mph 49 % 0.00 in
10:57 70.7 °F 50.6 °F 29.86 in North 3.1 mph 5.8 mph 49 % 0.00 in
11:02 70.5 °F 51.0 °F 29.86 in NNW 4.2 mph 6.9 mph 50 % 0.00 in
11:07 71.1 °F 50.4 °F 29.86 in NW 3.4 mph 5.0 mph 48 % 0.00 in
11:12 71.7 °F 51.0 °F 29.85 in WNW 5.6 mph 9.2 mph 48 % 0.00 in
11:17 72.3 °F 50.4 °F 29.85 in NNW 6.3 mph 10.4 mph 46 % 0.00 in
11:22 71.9 °F 50.6 °F 29.85 in North 3.4 mph 5.8 mph 47 % 0.00 in
11:27 71.4 °F 50.7 °F 29.85 in WNW 6.5 mph 8.1 mph 48 % 0.00 in
11:32 71.0 °F 50.3 °F 29.85 in NW 7.5 mph 11.5 mph 48 % 0.00 in
11:37 72.0 °F 50.7 °F 29.85 in NW 3.2 mph 7.0 mph 47 % 0.00 in
11:42 71.6 °F 49.7 °F 29.85 in NW 4.5 mph 6.9 mph 46 % 0.00 in
11:47 72.5 °F 50.5 °F 29.84 in NNW 4.6 mph 8.1 mph 46 % 0.00 in
11:52 73.3 °F 50.7 °F 29.84 in NW 6.1 mph 11.0 mph 45 % 0.00 in
11:57 73.1 °F 50.5 °F 29.84 in WNW 8.9 mph 10.4 mph 45 % 0.00 in
12:02 72.9 °F 50.3 °F 29.84 in North 5.5 mph 6.0 mph 45 % 0.00 in
12:07 72.8 °F 50.2 °F 29.84 in NW 3.6 mph 6.9 mph 45 % 0.00 in
12:12 72.8 °F 50.2 °F 29.83 in North 3.9 mph 8.1 mph 45 % 0.00 in
12:17 73.6 °F 49.7 °F 29.83 in WNW 5.9 mph 10.4 mph 43 % 0.00 in
12:22 74.7 °F 50.1 °F 29.83 in NNW 5.9 mph 9.2 mph 42 % 0.00 in
12:27 74.3 °F 49.7 °F 29.83 in NNW 4.9 mph 8.1 mph 42 % 0.00 in
12:32 75.0 °F 49.7 °F 29.83 in NNW 8.8 mph 10.0 mph 41 % 0.00 in
12:37 74.7 °F 48.8 °F 29.83 in WNW 9.2 mph 11.5 mph 40 % 0.00 in
12:42 74.2 °F 49.0 °F 29.83 in North 1.5 mph 4.6 mph 41 % 0.00 in
12:47 74.7 °F 48.8 °F 29.82 in NNW 6.3 mph 8.1 mph 40 % 0.00 in
12:52 74.9 °F 48.9 °F 29.82 in North 6.5 mph 8.1 mph 40 % 0.00 in
12:57 74.7 °F 48.1 °F 29.82 in NW 9.4 mph 11.5 mph 39 % 0.00 in
13:02 74.7 °F 48.8 °F 29.81 in WNW 7.5 mph 11.5 mph 40 % 0.00 in
13:07 75.4 °F 48.7 °F 29.81 in WNW 3.7 mph 5.8 mph 39 % 0.00 in
13:12 76.0 °F 49.2 °F 29.81 in NW 9.5 mph 11.5 mph 39 % 0.00 in
13:17 75.6 °F 48.2 °F 29.81 in West 7.8 mph 13.0 mph 38 % 0.00 in
13:22 76.1 °F 47.9 °F 29.81 in NW 7.6 mph 9.2 mph 37 % 0.00 in
13:27 75.6 °F 48.2 °F 29.81 in NW 5.5 mph 10.4 mph 38 % 0.00 in
13:32 75.6 °F 48.2 °F 29.80 in North 6.2 mph 10.4 mph 38 % 0.00 in
13:37 75.9 °F 48.5 °F 29.80 in North 4.9 mph 9.2 mph 38 % 0.00 in
13:42 76.7 °F 48.5 °F 29.80 in North 8.2 mph 12.7 mph 37 % 0.00 in
13:47 76.6 °F 49.1 °F 29.79 in North 3.4 mph 7.0 mph 38 % 0.00 in
13:52 77.2 °F 48.2 °F 29.79 in North 8.4 mph 9.0 mph 36 % 0.00 in
13:57 76.9 °F 48.6 °F 29.79 in North 1.2 mph 3.5 mph 37 % 0.00 in
14:02 77.9 °F 48.0 °F 29.79 in West 10.0 mph 16.1 mph 35 % 0.00 in
14:07 77.3 °F 48.3 °F 29.79 in WNW 5.9 mph 11.5 mph 36 % 0.00 in
14:12 77.6 °F 48.5 °F 29.79 in NW 7.6 mph 11.5 mph 36 % 0.00 in
14:17 78.1 °F 48.2 °F 29.78 in NE 6.7 mph 11.5 mph 35 % 0.00 in
14:22 78.1 °F 47.4 °F 29.78 in NW 5.2 mph 11.5 mph 34 % 0.00 in
14:27 78.3 °F 48.4 °F 29.78 in WNW 9.4 mph 12.7 mph 35 % 0.00 in
14:32 78.6 °F 48.7 °F 29.78 in North 8.6 mph 11.5 mph 35 % 0.00 in
14:37 78.6 °F 47.1 °F 29.78 in WNW 4.4 mph 11.5 mph 33 % 0.00 in
14:42 79.1 °F 48.3 °F 29.77 in NW 5.5 mph 8.0 mph 34 % 0.00 in
14:47 79.2 °F 47.6 °F 29.77 in NW 6.1 mph 7.0 mph 33 % 0.00 in
14:52 79.5 °F 47.9 °F 29.77 in North 8.2 mph 13.8 mph 33 % 0.00 in
14:57 79.8 °F 47.3 °F 29.77 in NW 3.9 mph 8.0 mph 32 % 0.00 in
15:02 79.3 °F 47.7 °F 29.77 in North 3.9 mph 15.0 mph 33 % 0.00 in
15:07 79.0 °F 45.8 °F 29.77 in WNW 13.6 mph 19.6 mph 31 % 0.00 in
15:12 79.0 °F 46.6 °F 29.76 in NW 7.3 mph 12.7 mph 32 % 0.00 in
15:17 79.2 °F 47.6 °F 29.76 in WNW 8.9 mph 10.4 mph 33 % 0.00 in
15:22 79.6 °F 47.1 °F 29.76 in North 5.3 mph 11.5 mph 32 % 0.00 in
15:27 79.8 °F 47.3 °F 29.76 in NNW 8.0 mph 11.5 mph 32 % 0.00 in
15:32 79.0 °F 46.6 °F 29.75 in NNW 6.2 mph 10.0 mph 32 % 0.00 in
15:37 79.2 °F 46.8 °F 29.75 in NNW 8.8 mph 10.4 mph 32 % 0.00 in
15:42 79.8 °F 46.5 °F 29.75 in NW 8.9 mph 9.2 mph 31 % 0.00 in
15:47 80.4 °F 45.2 °F 29.75 in WNW 11.3 mph 13.8 mph 29 % 0.00 in
15:52 80.1 °F 45.9 °F 29.74 in NNW 7.1 mph 7.1 mph 30 % 0.00 in
15:57 80.1 °F 45.9 °F 29.74 in NNW 7.8 mph 12.7 mph 30 % 0.00 in
16:02 80.4 °F 46.1 °F 29.74 in North 6.3 mph 9.2 mph 30 % 0.00 in
16:07 80.4 °F 46.1 °F 29.74 in NW 8.9 mph 12.0 mph 30 % 0.00 in
16:12 80.4 °F 46.1 °F 29.73 in North 7.6 mph 12.7 mph 30 % 0.00 in
16:17 81.3 °F 46.0 °F 29.73 in WNW 6.0 mph 10.4 mph 29 % 0.00 in
16:22 81.6 °F 47.2 °F 29.73 in NW 7.6 mph 14.0 mph 30 % 0.00 in
16:27 81.7 °F 46.3 °F 29.73 in North 9.2 mph 11.5 mph 29 % 0.00 in
16:32 81.9 °F 44.6 °F 29.73 in North 8.2 mph 11.5 mph 27 % 0.00 in
16:37 81.2 °F 45.9 °F 29.73 in WNW 8.6 mph 11.0 mph 29 % 0.00 in
16:42 80.8 °F 44.6 °F 29.72 in NW 4.0 mph 4.6 mph 28 % 0.00 in
16:47 81.0 °F 45.7 °F 29.72 in NW 9.4 mph 15.0 mph 29 % 0.00 in
16:52 81.3 °F 46.0 °F 29.72 in WNW 4.6 mph 11.0 mph 29 % 0.00 in
16:57 81.5 °F 45.2 °F 29.72 in WNW 7.6 mph 11.5 mph 28 % 0.00 in
17:02 81.8 °F 45.5 °F 29.72 in NNW 7.3 mph 11.5 mph 28 % 0.00 in
17:07 82.0 °F 45.7 °F 29.72 in NW 6.8 mph 8.0 mph 28 % 0.00 in
17:13 81.7 °F 45.4 °F 29.72 in NNW 10.0 mph 11.5 mph 28 % 0.00 in
17:17 82.0 °F 44.7 °F 29.71 in WNW 6.1 mph 9.2 mph 27 % 0.00 in
17:22 82.3 °F 45.9 °F 29.71 in NNW 9.4 mph 11.5 mph 28 % 0.00 in
17:28 82.1 °F 45.8 °F 29.71 in NNW 5.8 mph 9.2 mph 28 % 0.00 in
17:32 82.3 °F 45.9 °F 29.71 in NW 3.8 mph 8.1 mph 28 % 0.00 in
17:37 82.8 °F 45.4 °F 29.70 in North 8.1 mph 9.0 mph 27 % 0.00 in
17:43 82.0 °F 44.7 °F 29.70 in WNW 6.2 mph 9.2 mph 27 % 0.00 in
17:48 82.2 °F 43.9 °F 29.70 in WNW 6.1 mph 8.1 mph 26 % 0.00 in
17:53 81.9 °F 44.6 °F 29.70 in NW 7.1 mph 10.4 mph 27 % 0.00 in
17:58 81.6 °F 44.4 °F 29.70 in West 8.1 mph 11.5 mph 27 % 0.00 in
18:03 82.3 °F 45.0 °F 29.70 in NNW 6.0 mph 8.1 mph 27 % 0.00 in
18:08 81.5 °F 44.3 °F 29.70 in North 4.8 mph 9.2 mph 27 % 0.00 in
18:12 81.7 °F 44.5 °F 29.70 in NNW 5.5 mph 10.4 mph 27 % 0.00 in
18:18 82.2 °F 44.9 °F 29.70 in North 3.8 mph 10.0 mph 27 % 0.00 in
18:23 82.4 °F 44.1 °F 29.70 in NNE 10.0 mph 11.5 mph 26 % 0.00 in
18:28 82.1 °F 43.8 °F 29.70 in NW 11.9 mph 16.1 mph 26 % 0.00 in
18:33 80.6 °F 43.5 °F 29.70 in WNW 6.3 mph 9.2 mph 27 % 0.00 in
18:38 80.7 °F 44.6 °F 29.69 in North 4.3 mph 9.2 mph 28 % 0.00 in
18:43 81.3 °F 44.1 °F 29.70 in NW 8.4 mph 11.5 mph 27 % 0.00 in
18:53 81.4 °F 45.2 °F 29.69 in WNW 11.5 mph 11.5 mph 28 % 0.00 in
18:58 81.2 °F 45.0 °F 29.69 in North 6.3 mph 12.7 mph 28 % 0.00 in
19:03 81.0 °F 44.8 °F 29.69 in NNW 5.4 mph 5.8 mph 28 % 0.00 in
19:08 81.0 °F 43.9 °F 29.69 in North 6.1 mph 8.1 mph 27 % 0.00 in
19:13 81.1 °F 43.9 °F 29.70 in WNW 8.1 mph 12.7 mph 27 % 0.00 in
19:18 81.1 °F 43.0 °F 29.70 in NNW 5.1 mph 9.2 mph 26 % 0.00 in
19:23 81.3 °F 44.1 °F 29.70 in WNW 6.1 mph 9.2 mph 27 % 0.00 in
19:28 81.1 °F 43.9 °F 29.69 in NW 8.3 mph 11.5 mph 27 % 0.00 in
19:33 80.8 °F 43.7 °F 29.70 in NW 5.8 mph 9.2 mph 27 % 0.00 in
19:38 80.5 °F 43.4 °F 29.70 in WNW 3.9 mph 5.8 mph 27 % 0.00 in
19:43 80.5 °F 43.4 °F 29.70 in NW 7.8 mph 11.5 mph 27 % 0.00 in
19:48 80.2 °F 44.1 °F 29.70 in NW 4.6 mph 9.2 mph 28 % 0.00 in
19:53 79.9 °F 43.9 °F 29.70 in NW 6.9 mph 11.5 mph 28 % 0.00 in
19:58 79.7 °F 43.7 °F 29.70 in NW 7.9 mph 9.2 mph 28 % 0.00 in
20:03 79.6 °F 43.6 °F 29.70 in NW 5.1 mph 9.2 mph 28 % 0.00 in
20:08 79.4 °F 43.4 °F 29.69 in WNW 6.9 mph 10.4 mph 28 % 0.00 in
20:13 79.0 °F 43.1 °F 29.70 in NW 5.3 mph 8.1 mph 28 % 0.00 in
20:18 78.6 °F 43.7 °F 29.70 in North 2.6 mph 3.5 mph 29 % 0.00 in
20:23 78.3 °F 43.4 °F 29.70 in NW 3.1 mph 3.5 mph 29 % 0.00 in
20:28 78.0 °F 43.2 °F 29.70 in NW 4.5 mph 8.1 mph 29 % 0.00 in
20:33 77.7 °F 42.9 °F 29.70 in NW 4.0 mph 9.2 mph 29 % 0.00 in
20:38 77.4 °F 42.6 °F 29.70 in NW 3.3 mph 5.8 mph 29 % 0.00 in
20:43 77.1 °F 43.3 °F 29.70 in North 3.7 mph 5.8 mph 30 % 0.00 in
20:48 77.0 °F 43.2 °F 29.70 in NW 5.1 mph 6.9 mph 30 % 0.00 in
20:53 76.9 °F 43.1 °F 29.70 in NW 3.9 mph 6.9 mph 30 % 0.00 in
20:58 76.7 °F 42.9 °F 29.70 in NW 2.5 mph 3.5 mph 30 % 0.00 in
21:03 76.5 °F 42.7 °F 29.70 in NW 4.5 mph 4.6 mph 30 % 0.00 in
21:08 76.5 °F 42.7 °F 29.70 in North 4.5 mph 6.9 mph 30 % 0.00 in
21:13 76.3 °F 43.4 °F 29.69 in NW 4.4 mph 5.8 mph 31 % 0.00 in
21:18 76.1 °F 43.3 °F 29.69 in NW 3.1 mph 4.0 mph 31 % 0.00 in
21:23 75.9 °F 43.1 °F 29.69 in North 2.1 mph 3.5 mph 31 % 0.00 in
21:28 75.6 °F 43.7 °F 29.69 in Calm   1.2 mph 32 % 0.00 in
21:33 75.1 °F 44.0 °F 29.69 in NW 0.1 mph 1.2 mph 33 % 0.00 in
21:38 74.4 °F 43.4 °F 29.69 in NW 1.0 mph 2.0 mph 33 % 0.00 in
21:43 73.8 °F 43.7 °F 29.69 in NW 3.4 mph 3.5 mph 34 % 0.00 in
21:48 73.5 °F 44.2 °F 29.69 in NW 0.4 mph 3.5 mph 35 % 0.00 in
21:53 72.8 °F 44.3 °F 29.69 in North 4.3 mph 6.9 mph 36 % 0.00 in
21:58 71.5 °F 47.8 °F 29.70 in SSW 4.3 mph 6.9 mph 43 % 0.00 in
22:03 70.3 °F 50.2 °F 29.70 in SSE 5.6 mph 10.4 mph 49 % 0.00 in
22:08 69.2 °F 50.8 °F 29.70 in South 4.7 mph 6.0 mph 52 % 0.00 in
22:13 68.4 °F 50.6 °F 29.70 in South 4.6 mph 6.9 mph 53 % 0.00 in
22:18 67.9 °F 51.1 °F 29.70 in South 4.8 mph 5.0 mph 55 % 0.00 in
22:41 66.4 °F 51.6 °F 29.69 in South 5.8 mph 5.8 mph 59 % 0.00 in
22:46 66.0 °F 51.3 °F 29.69 in South 5.8 mph 5.8 mph 59 % 0.00 in
22:51 65.7 °F 51.4 °F 29.69 in South 2.5 mph 3.5 mph 60 % 0.00 in
22:56 65.4 °F 51.1 °F 29.69 in Calm     60 % 0.00 in
23:01 65.1 °F 51.3 °F 29.68 in South 1.4 mph 3.5 mph 61 % 0.00 in
23:06 64.8 °F 51.5 °F 29.68 in Calm   1.2 mph 62 % 0.00 in
23:11 64.5 °F 51.2 °F 29.68 in South 2.0 mph 3.5 mph 62 % 0.00 in
23:16 64.2 °F 51.3 °F 29.68 in Calm   2.3 mph 63 % 0.00 in
23:21 64.0 °F 51.6 °F 29.68 in South 0.5 mph 2.0 mph 64 % 0.00 in
23:26 63.8 °F 51.8 °F 29.67 in South 1.5 mph 3.5 mph 65 % 0.00 in
23:31 63.6 °F 51.6 °F 29.67 in Calm     65 % 0.00 in
23:36 63.2 °F 51.2 °F 29.67 in Calm     65 % 0.00 in
23:41 62.8 °F 51.3 °F 29.67 in Calm     66 % 0.00 in
23:46 62.5 °F 51.0 °F 29.66 in Calm     66 % 0.00 in
23:51 62.1 °F 51.0 °F 29.66 in Calm     67 % 0.00 in
23:56 61.3 °F 50.6 °F 29.66 in South 1.5 mph 2.3 mph 68 % 0.00 in
Ararat Weather
Compliments of Weather Underground - 2 mb
Click here to send mail.


ABOUT

Live weather data from Ararat, Victoria, Australia, 3377
Data uploaded from Cumulus every 5 minutes to Weather Underground.
This site then downloads the raw data for formatting and display.
Metric and imperial data can be displayed. Graphs and historical data available.
Includes Sun and Moon times and rain image live from BOM.

Check out Ararat Weather on Facebook, Twitter and Google +

Help support ongoing costs by checking out the ads





Follow @AraratWeather